sensor_id;sensor_type;location;lat;lon;timestamp;pressure;altitude;pressure_sealevel;temperature;humidity
64053;BME280;50299;49.524;8.536;2022-09-13T00:01:22;100080.31;;;10.24;72.56
64053;BME280;50299;49.524;8.536;2022-09-13T00:03:48;100070.13;;;10.16;73.43
64053;BME280;50299;49.524;8.536;2022-09-13T00:06:17;100064.03;;;10.02;74.20
64053;BME280;50299;49.524;8.536;2022-09-13T00:08:44;100053.03;;;9.93;77.85
64053;BME280;50299;49.524;8.536;2022-09-13T00:11:37;100043.66;;;9.85;74.98
64053;BME280;50299;49.524;8.536;2022-09-13T00:14:03;100029.00;;;10.15;77.27
64053;BME280;50299;49.524;8.536;2022-09-13T00:16:30;100031.69;;;10.23;75.95
64053;BME280;50299;49.524;8.536;2022-09-13T00:18:58;100036.03;;;10.33;78.02
64053;BME280;50299;49.524;8.536;2022-09-13T00:21:24;100029.53;;;10.50;78.36
64053;BME280;50299;49.524;8.536;2022-09-13T00:23:52;100038.78;;;10.75;84.35
64053;BME280;50299;49.524;8.536;2022-09-13T00:26:22;100034.44;;;10.86;73.22
64053;BME280;50299;49.524;8.536;2022-09-13T00:28:51;100035.47;;;9.98;68.51
64053;BME280;50299;49.524;8.536;2022-09-13T00:31:19;100029.47;;;9.96;81.17
64053;BME280;50299;49.524;8.536;2022-09-13T00:33:46;100022.00;;;10.38;84.08
64053;BME280;50299;49.524;8.536;2022-09-13T00:36:15;100024.69;;;10.47;77.12
64053;BME280;50299;49.524;8.536;2022-09-13T00:38:42;100034.66;;;10.18;70.27
64053;BME280;50299;49.524;8.536;2022-09-13T00:41:15;100034.78;;;9.71;70.34
64053;BME280;50299;49.524;8.536;2022-09-13T00:47:13;100035.16;;;10.20;87.95
64053;BME280;50299;49.524;8.536;2022-09-13T00:49:42;100028.16;;;10.56;85.96
64053;BME280;50299;49.524;8.536;2022-09-13T00:52:12;100029.47;;;10.58;77.00
64053;BME280;50299;49.524;8.536;2022-09-13T00:54:44;100027.72;;;10.54;74.77
64053;BME280;50299;49.524;8.536;2022-09-13T00:57:12;100034.06;;;9.92;73.61
64053;BME280;50299;49.524;8.536;2022-09-13T00:59:44;100030.72;;;9.39;71.93
64053;BME280;50299;49.524;8.536;2022-09-13T01:02:13;100036.94;;;9.27;74.12
64053;BME280;50299;49.524;8.536;2022-09-13T01:04:41;100032.41;;;9.23;74.48
64053;BME280;50299;49.524;8.536;2022-09-13T01:07:10;100034.06;;;9.15;72.09
64053;BME280;50299;49.524;8.536;2022-09-13T01:09:42;100043.50;;;9.05;77.03
64053;BME280;50299;49.524;8.536;2022-09-13T01:12:15;100035.09;;;9.02;73.97
64053;BME280;50299;49.524;8.536;2022-09-13T01:14:47;100033.59;;;9.13;77.81
64053;BME280;50299;49.524;8.536;2022-09-13T01:17:14;100008.47;;;9.44;77.92
64053;BME280;50299;49.524;8.536;2022-09-13T01:19:41;100013.22;;;9.73;82.65
64053;BME280;50299;49.524;8.536;2022-09-13T01:30:23;100032.88;;;10.76;73.48
64053;BME280;50299;49.524;8.536;2022-09-13T01:35:53;100035.13;;;9.99;72.95
64053;BME280;50299;49.524;8.536;2022-09-13T01:50:02;100037.34;;;10.06;79.74
64053;BME280;50299;49.524;8.536;2022-09-13T01:52:52;100034.00;;;10.00;78.09
64053;BME280;50299;49.524;8.536;2022-09-13T01:55:33;100031.06;;;9.76;72.96
64053;BME280;50299;49.524;8.536;2022-09-13T01:58:24;100038.53;;;9.75;78.64
64053;BME280;50299;49.524;8.536;2022-09-13T02:04:10;100036.69;;;9.88;76.90
64053;BME280;50299;49.524;8.536;2022-09-13T02:06:43;100046.16;;;9.99;82.18
64053;BME280;50299;49.524;8.536;2022-09-13T02:09:38;100032.78;;;10.10;76.06
64053;BME280;50299;49.524;8.536;2022-09-13T02:12:33;100032.03;;;10.01;77.67
64053;BME280;50299;49.524;8.536;2022-09-13T02:15:11;100032.56;;;9.94;78.57
64053;BME280;50299;49.524;8.536;2022-09-13T02:17:44;100035.06;;;9.87;74.95
64053;BME280;50299;49.524;8.536;2022-09-13T02:20:22;100026.16;;;9.81;74.66
64053;BME280;50299;49.524;8.536;2022-09-13T02:22:55;100049.59;;;9.67;75.53
64053;BME280;50299;49.524;8.536;2022-09-13T02:25:24;100055.41;;;9.74;78.68
64053;BME280;50299;49.524;8.536;2022-09-13T02:27:55;100063.66;;;9.82;76.59
64053;BME280;50299;49.524;8.536;2022-09-13T02:30:24;100066.28;;;9.70;75.53
64053;BME280;50299;49.524;8.536;2022-09-13T02:32:55;100067.47;;;9.60;77.35
64053;BME280;50299;49.524;8.536;2022-09-13T02:37:58;100058.66;;;10.05;80.16
64053;BME280;50299;49.524;8.536;2022-09-13T02:40:31;100055.97;;;10.18;78.36
64053;BME280;50299;49.524;8.536;2022-09-13T02:43:10;100059.72;;;10.13;75.85
64053;BME280;50299;49.524;8.536;2022-09-13T02:45:51;100066.13;;;10.05;73.94
64053;BME280;50299;49.524;8.536;2022-09-13T02:48:29;100071.16;;;9.73;72.46
64053;BME280;50299;49.524;8.536;2022-09-13T02:54:00;100065.09;;;9.50;82.02
64053;BME280;50299;49.524;8.536;2022-09-13T02:56:50;100060.56;;;9.84;84.75
64053;BME280;50299;49.524;8.536;2022-09-13T02:59:22;100063.22;;;10.01;77.50
64053;BME280;50299;49.524;8.536;2022-09-13T03:01:57;100058.75;;;9.88;77.27
64053;BME280;50299;49.524;8.536;2022-09-13T03:04:26;100050.81;;;10.07;84.96
64053;BME280;50299;49.524;8.536;2022-09-13T03:06:53;100053.66;;;10.20;75.02
64053;BME280;50299;49.524;8.536;2022-09-13T03:09:20;100049.13;;;9.26;72.76
64053;BME280;50299;49.524;8.536;2022-09-13T03:17:48;100058.59;;;8.99;78.63
64053;BME280;50299;49.524;8.536;2022-09-13T03:20:42;100048.75;;;8.11;76.26
64053;BME280;50299;49.524;8.536;2022-09-13T03:23:25;100029.47;;;8.37;85.18
64053;BME280;50299;49.524;8.536;2022-09-13T03:26:09;100036.56;;;9.37;88.40
64053;BME280;50299;49.524;8.536;2022-09-13T03:29:04;100017.91;;;9.73;83.66
64053;BME280;50299;49.524;8.536;2022-09-13T03:37:09;99997.34;;;10.33;82.21
64053;BME280;50299;49.524;8.536;2022-09-13T03:39:46;100000.53;;;10.56;79.45
64053;BME280;50299;49.524;8.536;2022-09-13T03:42:22;99998.47;;;10.32;72.93
64053;BME280;50299;49.524;8.536;2022-09-13T03:44:51;100010.69;;;10.10;72.11
64053;BME280;50299;49.524;8.536;2022-09-13T03:47:23;100010.97;;;10.17;77.08
64053;BME280;50299;49.524;8.536;2022-09-13T03:49:52;100013.66;;;10.26;75.59
64053;BME280;50299;49.524;8.536;2022-09-13T03:52:20;100026.84;;;10.41;79.84
64053;BME280;50299;49.524;8.536;2022-09-13T03:54:46;100015.81;;;10.41;74.68
64053;BME280;50299;49.524;8.536;2022-09-13T03:57:15;100028.06;;;10.31;78.55
64053;BME280;50299;49.524;8.536;2022-09-13T03:59:48;100015.25;;;10.48;79.70
64053;BME280;50299;49.524;8.536;2022-09-13T04:02:16;100017.84;;;10.65;83.77
64053;BME280;50299;49.524;8.536;2022-09-13T04:04:44;100021.28;;;10.83;83.29
64053;BME280;50299;49.524;8.536;2022-09-13T04:07:13;100019.41;;;11.20;75.29
64053;BME280;50299;49.524;8.536;2022-09-13T04:09:40;100017.56;;;11.37;87.55
64053;BME280;50299;49.524;8.536;2022-09-13T04:12:06;100027.63;;;11.78;89.82
64053;BME280;50299;49.524;8.536;2022-09-13T04:14:35;100027.13;;;12.00;84.32
64053;BME280;50299;49.524;8.536;2022-09-13T04:17:02;100027.75;;;11.81;75.88
64053;BME280;50299;49.524;8.536;2022-09-13T04:19:28;100026.56;;;11.58;77.48
64053;BME280;50299;49.524;8.536;2022-09-13T04:21:55;100025.66;;;11.42;76.30
64053;BME280;50299;49.524;8.536;2022-09-13T04:24:24;100028.19;;;11.47;78.35
64053;BME280;50299;49.524;8.536;2022-09-13T04:26:52;100023.81;;;11.46;78.06
64053;BME280;50299;49.524;8.536;2022-09-13T04:29:21;100021.72;;;11.55;78.78
64053;BME280;50299;49.524;8.536;2022-09-13T04:31:50;100006.03;;;11.47;77.98
64053;BME280;50299;49.524;8.536;2022-09-13T04:34:17;100005.59;;;11.45;78.67
64053;BME280;50299;49.524;8.536;2022-09-13T04:36:44;100011.38;;;11.52;77.89
64053;BME280;50299;49.524;8.536;2022-09-13T04:39:11;100013.22;;;11.48;77.22
64053;BME280;50299;49.524;8.536;2022-09-13T04:41:41;100024.59;;;11.22;70.03
64053;BME280;50299;49.524;8.536;2022-09-13T04:44:10;100019.94;;;10.68;70.27
64053;BME280;50299;49.524;8.536;2022-09-13T04:46:36;100024.31;;;10.69;76.81
64053;BME280;50299;49.524;8.536;2022-09-13T04:49:03;100018.75;;;10.78;77.06
64053;BME280;50299;49.524;8.536;2022-09-13T04:51:29;100014.06;;;10.91;78.40
64053;BME280;50299;49.524;8.536;2022-09-13T04:53:55;100010.97;;;11.04;79.27
64053;BME280;50299;49.524;8.536;2022-09-13T04:56:23;100011.31;;;11.03;76.32
64053;BME280;50299;49.524;8.536;2022-09-13T04:58:50;100012.91;;;11.04;77.79
64053;BME280;50299;49.524;8.536;2022-09-13T05:01:16;100011.88;;;11.08;80.54
64053;BME280;50299;49.524;8.536;2022-09-13T05:03:43;100034.16;;;11.24;85.73
64053;BME280;50299;49.524;8.536;2022-09-13T05:06:14;100036.16;;;11.60;82.23
64053;BME280;50299;49.524;8.536;2022-09-13T05:08:44;100033.50;;;11.64;78.26
64053;BME280;50299;49.524;8.536;2022-09-13T05:11:10;100030.97;;;11.71;80.06
64053;BME280;50299;49.524;8.536;2022-09-13T05:13:37;100030.50;;;11.57;75.11
64053;BME280;50299;49.524;8.536;2022-09-13T05:16:06;100036.47;;;11.47;78.53
64053;BME280;50299;49.524;8.536;2022-09-13T05:18:34;100039.72;;;11.61;74.07
64053;BME280;50299;49.524;8.536;2022-09-13T05:21:03;100048.94;;;11.41;74.62
64053;BME280;50299;49.524;8.536;2022-09-13T05:23:30;100043.75;;;11.27;72.71
64053;BME280;50299;49.524;8.536;2022-09-13T05:26:00;100052.75;;;11.36;79.21
64053;BME280;50299;49.524;8.536;2022-09-13T05:28:32;100050.31;;;11.47;77.44
64053;BME280;50299;49.524;8.536;2022-09-13T05:31:01;100053.19;;;11.38;78.30
64053;BME280;50299;49.524;8.536;2022-09-13T05:33:36;100056.88;;;11.30;81.79
64053;BME280;50299;49.524;8.536;2022-09-13T05:36:04;100061.66;;;11.78;89.91
64053;BME280;50299;49.524;8.536;2022-09-13T05:38:31;100071.13;;;11.77;70.75
64053;BME280;50299;49.524;8.536;2022-09-13T05:41:00;100061.63;;;11.42;74.65
64053;BME280;50299;49.524;8.536;2022-09-13T05:43:29;100064.94;;;11.35;79.54
64053;BME280;50299;49.524;8.536;2022-09-13T05:46:08;100065.84;;;11.72;80.02
64053;BME280;50299;49.524;8.536;2022-09-13T05:48:35;100053.34;;;11.91;82.07
64053;BME280;50299;49.524;8.536;2022-09-13T05:51:14;100050.69;;;12.06;81.08
64053;BME280;50299;49.524;8.536;2022-09-13T05:53:43;100053.72;;;12.29;79.00
64053;BME280;50299;49.524;8.536;2022-09-13T05:56:12;100056.41;;;12.38;79.72
64053;BME280;50299;49.524;8.536;2022-09-13T05:58:47;100064.66;;;12.50;78.40
64053;BME280;50299;49.524;8.536;2022-09-13T06:01:16;100065.91;;;12.65;78.27
64053;BME280;50299;49.524;8.536;2022-09-13T06:03:46;100053.34;;;12.83;80.43
64053;BME280;50299;49.524;8.536;2022-09-13T06:06:13;100057.78;;;13.00;80.43
64053;BME280;50299;49.524;8.536;2022-09-13T06:08:40;100053.78;;;12.86;75.54
64053;BME280;50299;49.524;8.536;2022-09-13T06:11:11;100048.38;;;13.05;81.84
64053;BME280;50299;49.524;8.536;2022-09-13T06:13:38;100044.97;;;13.12;79.63
64053;BME280;50299;49.524;8.536;2022-09-13T06:16:07;100048.75;;;13.19;80.64
64053;BME280;50299;49.524;8.536;2022-09-13T06:18:35;100064.06;;;13.45;82.87
64053;BME280;50299;49.524;8.536;2022-09-13T06:21:25;100052.75;;;13.66;81.45
64053;BME280;50299;49.524;8.536;2022-09-13T06:24:15;100047.44;;;13.76;81.11
64053;BME280;50299;49.524;8.536;2022-09-13T06:27:09;100044.03;;;13.83;80.12
64053;BME280;50299;49.524;8.536;2022-09-13T06:29:59;100045.25;;;13.86;78.23
64053;BME280;50299;49.524;8.536;2022-09-13T06:32:50;100052.09;;;13.56;71.38
64053;BME280;50299;49.524;8.536;2022-09-13T06:35:41;100046.25;;;13.46;73.53
64053;BME280;50299;49.524;8.536;2022-09-13T06:38:31;100043.81;;;13.28;76.46
64053;BME280;50299;49.524;8.536;2022-09-13T06:41:22;100042.13;;;13.40;77.89
64053;BME280;50299;49.524;8.536;2022-09-13T06:44:13;100049.91;;;13.18;76.01
64053;BME280;50299;49.524;8.536;2022-09-13T06:47:04;100044.38;;;13.18;75.89
64053;BME280;50299;49.524;8.536;2022-09-13T06:49:54;100040.25;;;13.12;75.88
64053;BME280;50299;49.524;8.536;2022-09-13T06:52:45;100063.25;;;13.28;77.06
64053;BME280;50299;49.524;8.536;2022-09-13T06:55:36;100068.06;;;13.16;73.17
64053;BME280;50299;49.524;8.536;2022-09-13T06:58:28;100067.03;;;12.76;73.13
64053;BME280;50299;49.524;8.536;2022-09-13T07:01:24;100053.25;;;12.80;74.78
64053;BME280;50299;49.524;8.536;2022-09-13T07:04:16;100056.72;;;13.05;71.31
64053;BME280;50299;49.524;8.536;2022-09-13T07:07:08;100061.47;;;13.04;78.01
64053;BME280;50299;49.524;8.536;2022-09-13T07:09:59;100069.50;;;13.10;72.12
64053;BME280;50299;49.524;8.536;2022-09-13T07:12:50;100065.59;;;13.26;77.75
64053;BME280;50299;49.524;8.536;2022-09-13T07:52:18;100073.31;;;15.09;65.10
64053;BME280;50299;49.524;8.536;2022-09-13T07:54:45;100056.22;;;15.30;73.19
64053;BME280;50299;49.524;8.536;2022-09-13T07:57:13;100052.56;;;15.49;71.84
64053;BME280;50299;49.524;8.536;2022-09-13T07:59:39;100041.69;;;15.67;67.21
64053;BME280;50299;49.524;8.536;2022-09-13T08:02:08;100039.63;;;15.60;63.77
64053;BME280;50299;49.524;8.536;2022-09-13T08:04:34;100051.88;;;15.33;62.70
64053;BME280;50299;49.524;8.536;2022-09-13T08:07:01;100054.13;;;15.23;67.83
64053;BME280;50299;49.524;8.536;2022-09-13T08:09:28;100065.50;;;15.61;67.86
64053;BME280;50299;49.524;8.536;2022-09-13T08:11:54;100066.47;;;15.95;69.02
64053;BME280;50299;49.524;8.536;2022-09-13T08:14:22;100061.09;;;16.09;60.02
64053;BME280;50299;49.524;8.536;2022-09-13T08:16:49;100063.72;;;16.55;64.17
64053;BME280;50299;49.524;8.536;2022-09-13T08:19:17;100053.78;;;16.88;60.19
64053;BME280;50299;49.524;8.536;2022-09-13T08:21:46;100040.00;;;17.06;62.68
64053;BME280;50299;49.524;8.536;2022-09-13T08:24:18;100034.28;;;17.36;59.00
64053;BME280;50299;49.524;8.536;2022-09-13T08:26:48;100045.03;;;17.78;69.25
64053;BME280;50299;49.524;8.536;2022-09-13T08:29:15;100052.78;;;17.99;57.57
64053;BME280;50299;49.524;8.536;2022-09-13T08:31:42;100046.41;;;18.02;57.00
64053;BME280;50299;49.524;8.536;2022-09-13T08:34:13;100024.91;;;18.13;58.62
64053;BME280;50299;49.524;8.536;2022-09-13T08:36:43;100021.16;;;17.91;50.83
64053;BME280;50299;49.524;8.536;2022-09-13T08:39:10;100024.56;;;18.18;58.70
64053;BME280;50299;49.524;8.536;2022-09-13T08:49:45;100024.13;;;18.16;52.23
64053;BME280;50299;49.524;8.536;2022-09-13T08:54:40;100047.38;;;18.28;48.04
64053;BME280;50299;49.524;8.536;2022-09-13T08:57:14;100051.34;;;18.19;51.95
64053;BME280;50299;49.524;8.536;2022-09-13T09:00:03;100059.75;;;18.23;48.78
64053;BME280;50299;49.524;8.536;2022-09-13T09:02:55;100056.59;;;18.32;48.69
64053;BME280;50299;49.524;8.536;2022-09-13T09:05:26;100060.59;;;18.34;50.04
64053;BME280;50299;49.524;8.536;2022-09-13T09:08:05;100053.53;;;18.62;52.16
64053;BME280;50299;49.524;8.536;2022-09-13T09:10:41;100040.44;;;18.87;49.80
64053;BME280;50299;49.524;8.536;2022-09-13T09:15:52;100027.72;;;19.40;46.67
64053;BME280;50299;49.524;8.536;2022-09-13T09:18:24;100028.13;;;19.88;52.36
64053;BME280;50299;49.524;8.536;2022-09-13T09:20:58;100018.84;;;20.06;47.04
64053;BME280;50299;49.524;8.536;2022-09-13T09:23:36;100012.72;;;20.50;48.52
64053;BME280;50299;49.524;8.536;2022-09-13T09:26:22;100020.16;;;20.89;44.40
64053;BME280;50299;49.524;8.536;2022-09-13T09:28:54;100018.53;;;20.95;45.94
64053;BME280;50299;49.524;8.536;2022-09-13T09:34:50;100048.84;;;21.77;45.82
64053;BME280;50299;49.524;8.536;2022-09-13T09:37:25;100042.25;;;21.91;44.20
64053;BME280;50299;49.524;8.536;2022-09-13T09:39:57;100056.81;;;21.82;40.35
64053;BME280;50299;49.524;8.536;2022-09-13T09:42:28;100068.09;;;21.79;41.88
64053;BME280;50299;49.524;8.536;2022-09-13T09:44:59;100076.09;;;21.84;45.98
64053;BME280;50299;49.524;8.536;2022-09-13T09:47:42;100081.22;;;21.92;42.88
64053;BME280;50299;49.524;8.536;2022-09-13T09:50:29;100068.25;;;22.09;41.47
64053;BME280;50299;49.524;8.536;2022-09-13T09:53:00;100075.06;;;22.08;41.41
64053;BME280;50299;49.524;8.536;2022-09-13T09:58:03;100060.75;;;21.88;44.67
64053;BME280;50299;49.524;8.536;2022-09-13T10:00:34;100045.09;;;21.91;39.73
64053;BME280;50299;49.524;8.536;2022-09-13T10:03:04;100037.41;;;21.99;43.38
64053;BME280;50299;49.524;8.536;2022-09-13T10:05:33;100035.84;;;21.90;42.13
64053;BME280;50299;49.524;8.536;2022-09-13T10:08:02;100039.41;;;21.53;42.28
64053;BME280;50299;49.524;8.536;2022-09-13T10:10:53;100026.66;;;21.38;42.08
64053;BME280;50299;49.524;8.536;2022-09-13T10:13:20;100025.81;;;21.44;42.98
64053;BME280;50299;49.524;8.536;2022-09-13T10:15:56;100014.31;;;21.73;43.13
64053;BME280;50299;49.524;8.536;2022-09-13T10:18:30;100010.13;;;22.30;46.33
64053;BME280;50299;49.524;8.536;2022-09-13T10:21:23;100013.41;;;22.59;42.02
64053;BME280;50299;49.524;8.536;2022-09-13T10:23:50;100018.75;;;22.80;41.83
64053;BME280;50299;49.524;8.536;2022-09-13T10:26:20;100028.47;;;23.03;41.29
64053;BME280;50299;49.524;8.536;2022-09-13T10:31:18;100053.28;;;22.50;40.37
64053;BME280;50299;49.524;8.536;2022-09-13T10:33:51;100055.31;;;22.50;40.74
64053;BME280;50299;49.524;8.536;2022-09-13T10:36:32;100068.78;;;22.35;37.37
64053;BME280;50299;49.524;8.536;2022-09-13T10:39:20;100069.34;;;22.53;42.65
64053;BME280;50299;49.524;8.536;2022-09-13T10:41:56;100068.13;;;22.54;41.74
64053;BME280;50299;49.524;8.536;2022-09-13T10:47:06;100062.75;;;22.33;40.07
64053;BME280;50299;49.524;8.536;2022-09-13T10:49:46;100066.06;;;22.24;38.37
64053;BME280;50299;49.524;8.536;2022-09-13T10:52:24;100065.84;;;22.08;40.44
64053;BME280;50299;49.524;8.536;2022-09-13T10:54:50;100062.63;;;22.09;38.77
64053;BME280;50299;49.524;8.536;2022-09-13T11:00:21;100037.09;;;21.86;38.62
64053;BME280;50299;49.524;8.536;2022-09-13T11:06:06;100043.53;;;21.86;41.51
64053;BME280;50299;49.524;8.536;2022-09-13T11:11:31;100063.22;;;21.86;39.63
64053;BME280;50299;49.524;8.536;2022-09-13T11:19:36;100038.97;;;22.03;39.01
64053;BME280;50299;49.524;8.536;2022-09-13T11:30:18;100044.53;;;21.65;41.53
64053;BME280;50299;49.524;8.536;2022-09-13T11:32:55;100044.88;;;21.67;44.50
64053;BME280;50299;49.524;8.536;2022-09-13T11:35:45;100032.97;;;21.56;43.62
64053;BME280;50299;49.524;8.536;2022-09-13T11:50:25;100001.84;;;21.22;42.17
64053;BME280;50299;49.524;8.536;2022-09-13T11:53:16;99999.47;;;21.20;43.40
64053;BME280;50299;49.524;8.536;2022-09-13T11:55:57;99999.13;;;21.15;43.91
64053;BME280;50299;49.524;8.536;2022-09-13T12:01:09;99982.00;;;20.95;42.98
64053;BME280;50299;49.524;8.536;2022-09-13T12:03:42;99982.34;;;21.01;45.41
64053;BME280;50299;49.524;8.536;2022-09-13T12:06:25;99977.84;;;21.10;46.87
64053;BME280;50299;49.524;8.536;2022-09-13T12:08:57;99968.59;;;21.13;44.00
64053;BME280;50299;49.524;8.536;2022-09-13T12:11:31;99964.28;;;21.02;45.72
64053;BME280;50299;49.524;8.536;2022-09-13T12:14:02;99952.66;;;21.00;44.71
64053;BME280;50299;49.524;8.536;2022-09-13T12:17:02;99967.66;;;20.71;43.42
64053;BME280;50299;49.524;8.536;2022-09-13T12:19:40;99973.28;;;20.79;44.84
64053;BME280;50299;49.524;8.536;2022-09-13T12:22:09;99968.31;;;20.97;45.97
64053;BME280;50299;49.524;8.536;2022-09-13T12:24:44;99965.91;;;21.03;45.03
64053;BME280;50299;49.524;8.536;2022-09-13T12:30:18;99947.88;;;20.97;45.92
64053;BME280;50299;49.524;8.536;2022-09-13T12:32:46;99931.16;;;20.75;43.60
64053;BME280;50299;49.524;8.536;2022-09-13T12:35:28;99931.47;;;20.91;43.54
64053;BME280;50299;49.524;8.536;2022-09-13T12:40:55;99930.38;;;20.71;43.54
64053;BME280;50299;49.524;8.536;2022-09-13T12:46:26;99932.69;;;20.90;41.98
64053;BME280;50299;49.524;8.536;2022-09-13T12:52:05;99913.03;;;20.87;43.18
64053;BME280;50299;49.524;8.536;2022-09-13T12:55:06;99921.53;;;20.69;44.60
64053;BME280;50299;49.524;8.536;2022-09-13T12:58:37;99916.34;;;20.67;43.25
64053;BME280;50299;49.524;8.536;2022-09-13T13:04:03;99917.69;;;21.08;42.83
64053;BME280;50299;49.524;8.536;2022-09-13T13:06:40;99922.19;;;21.43;46.53
64053;BME280;50299;49.524;8.536;2022-09-13T13:09:23;99924.31;;;21.73;43.34
64053;BME280;50299;49.524;8.536;2022-09-13T13:11:54;99906.75;;;21.96;40.90
64053;BME280;50299;49.524;8.536;2022-09-13T13:14:44;99911.19;;;22.28;41.67
64053;BME280;50299;49.524;8.536;2022-09-13T13:17:34;99915.63;;;22.59;40.33
64053;BME280;50299;49.524;8.536;2022-09-13T13:28:53;99911.66;;;23.31;37.07
64053;BME280;50299;49.524;8.536;2022-09-13T13:31:34;99912.06;;;23.53;39.81
64053;BME280;50299;49.524;8.536;2022-09-13T13:41:57;99895.28;;;24.45;37.70
64053;BME280;50299;49.524;8.536;2022-09-13T13:47:39;99888.00;;;24.28;34.75
64053;BME280;50299;49.524;8.536;2022-09-13T13:49:44;99888.41;;;24.26;35.50
64053;BME280;50299;49.524;8.536;2022-09-13T14:00:16;99877.69;;;24.37;34.83
64053;BME280;50299;49.524;8.536;2022-09-13T14:05:45;99865.00;;;24.46;35.37
64053;BME280;50299;49.524;8.536;2022-09-13T14:09:01;99867.22;;;24.54;36.21
64053;BME280;50299;49.524;8.536;2022-09-13T14:11:40;99862.63;;;24.44;33.38
64053;BME280;50299;49.524;8.536;2022-09-13T14:14:49;99859.69;;;24.31;36.36
64053;BME280;50299;49.524;8.536;2022-09-13T14:20:18;99848.75;;;24.33;35.22
64053;BME280;50299;49.524;8.536;2022-09-13T14:22:46;99845.06;;;24.17;33.59
64053;BME280;50299;49.524;8.536;2022-09-13T14:25:22;99844.44;;;23.89;37.24
64053;BME280;50299;49.524;8.536;2022-09-13T14:27:49;99845.63;;;23.92;37.34
64053;BME280;50299;49.524;8.536;2022-09-13T14:32:57;99847.78;;;23.84;38.32
64053;BME280;50299;49.524;8.536;2022-09-13T14:35:33;99836.94;;;23.62;35.88
64053;BME280;50299;49.524;8.536;2022-09-13T14:38:29;99834.28;;;23.75;36.41
64053;BME280;50299;49.524;8.536;2022-09-13T14:41:15;99825.56;;;23.66;38.28
64053;BME280;50299;49.524;8.536;2022-09-13T14:43:46;99827.84;;;23.75;38.24
64053;BME280;50299;49.524;8.536;2022-09-13T14:46:27;99819.41;;;23.71;36.39
64053;BME280;50299;49.524;8.536;2022-09-13T14:49:01;99818.31;;;23.25;36.47
64053;BME280;50299;49.524;8.536;2022-09-13T14:51:38;99822.97;;;22.88;39.16
64053;BME280;50299;49.524;8.536;2022-09-13T14:54:15;99822.03;;;22.95;39.97
64053;BME280;50299;49.524;8.536;2022-09-13T14:56:52;99809.31;;;22.36;38.84
64053;BME280;50299;49.524;8.536;2022-09-13T14:59:30;99809.16;;;22.47;40.99
64053;BME280;50299;49.524;8.536;2022-09-13T15:02:04;99799.34;;;22.59;39.52
64053;BME280;50299;49.524;8.536;2022-09-13T15:04:32;99793.16;;;22.67;41.37
64053;BME280;50299;49.524;8.536;2022-09-13T15:07:07;99785.13;;;22.66;38.72
64053;BME280;50299;49.524;8.536;2022-09-13T15:09:34;99789.75;;;22.53;39.64
64053;BME280;50299;49.524;8.536;2022-09-13T15:12:03;99780.50;;;22.52;39.31
64053;BME280;50299;49.524;8.536;2022-09-13T15:14:32;99780.94;;;22.51;38.24
64053;BME280;50299;49.524;8.536;2022-09-13T15:17:13;99769.25;;;22.52;40.72
64053;BME280;50299;49.524;8.536;2022-09-13T15:19:48;99767.13;;;22.33;39.67
64053;BME280;50299;49.524;8.536;2022-09-13T15:22:30;99772.50;;;21.97;38.26
64053;BME280;50299;49.524;8.536;2022-09-13T15:25:00;99767.72;;;22.21;40.02
64053;BME280;50299;49.524;8.536;2022-09-13T15:30:00;99756.13;;;22.18;39.57
64053;BME280;50299;49.524;8.536;2022-09-13T15:32:38;99766.44;;;22.25;42.40
64053;BME280;50299;49.524;8.536;2022-09-13T15:37:59;99758.94;;;22.42;38.73
64053;BME280;50299;49.524;8.536;2022-09-13T15:40:28;99752.25;;;22.59;40.13
64053;BME280;50299;49.524;8.536;2022-09-13T15:42:55;99747.38;;;22.63;40.50
64053;BME280;50299;49.524;8.536;2022-09-13T15:45:22;99744.41;;;22.71;39.42
64053;BME280;50299;49.524;8.536;2022-09-13T15:47:50;99740.75;;;23.17;37.80
64053;BME280;50299;49.524;8.536;2022-09-13T15:52:48;99733.41;;;23.00;38.63
64053;BME280;50299;49.524;8.536;2022-09-13T15:55:15;99735.53;;;21.94;40.20
64053;BME280;50299;49.524;8.536;2022-09-13T15:57:44;99728.91;;;22.08;40.71
64053;BME280;50299;49.524;8.536;2022-09-13T16:00:25;99736.06;;;22.40;41.31
64053;BME280;50299;49.524;8.536;2022-09-13T16:02:52;99728.41;;;22.40;40.51
64053;BME280;50299;49.524;8.536;2022-09-13T16:05:19;99727.69;;;21.82;41.04
64053;BME280;50299;49.524;8.536;2022-09-13T16:07:45;99723.31;;;22.32;40.06
64053;BME280;50299;49.524;8.536;2022-09-13T16:10:15;99724.13;;;22.56;41.51
64053;BME280;50299;49.524;8.536;2022-09-13T16:12:43;99723.75;;;22.30;40.41
64053;BME280;50299;49.524;8.536;2022-09-13T16:15:10;99733.97;;;21.93;43.51
64053;BME280;50299;49.524;8.536;2022-09-13T16:17:39;99728.22;;;21.74;42.38
64053;BME280;50299;49.524;8.536;2022-09-13T16:20:06;99740.81;;;21.62;43.12
64053;BME280;50299;49.524;8.536;2022-09-13T16:22:34;99742.53;;;21.18;44.01
64053;BME280;50299;49.524;8.536;2022-09-13T16:25:00;99734.38;;;20.93;44.87
64053;BME280;50299;49.524;8.536;2022-09-13T16:27:26;99744.84;;;20.92;45.85
64053;BME280;50299;49.524;8.536;2022-09-13T16:29:59;99738.44;;;20.92;45.69
64053;BME280;50299;49.524;8.536;2022-09-13T16:32:25;99741.44;;;20.67;45.36
64053;BME280;50299;49.524;8.536;2022-09-13T16:34:52;99742.03;;;20.48;46.84
64053;BME280;50299;49.524;8.536;2022-09-13T16:37:18;99740.25;;;20.19;47.83
64053;BME280;50299;49.524;8.536;2022-09-13T16:39:45;99737.97;;;20.00;48.91
64053;BME280;50299;49.524;8.536;2022-09-13T16:42:13;99736.72;;;20.12;49.17
64053;BME280;50299;49.524;8.536;2022-09-13T16:44:40;99731.16;;;20.53;48.03
64053;BME280;50299;49.524;8.536;2022-09-13T16:47:07;99741.41;;;20.26;48.36
64053;BME280;50299;49.524;8.536;2022-09-13T16:49:33;99735.09;;;20.07;48.58
64053;BME280;50299;49.524;8.536;2022-09-13T16:52:00;99741.78;;;19.58;49.58
64053;BME280;50299;49.524;8.536;2022-09-13T16:54:27;99740.72;;;19.19;50.80